Time;durP1;ratioP1;P1;durP2;ratioP2;P2;SDS_P1;SDS_P2;PMS_P1;PMS_P2;Temp;Humidity;BMP_temperature;BMP_pressure;BME280_temperature;BME280_humidity;BME280_pressure;Samples;Min_cycle;Max_cycle;Signal;HPM_P1;HPM_P2
2022/10/02 00:00:08;;;;;;;3.42;0.80;;;20.10;64.00;;;;;;5047954;28;19912;-63
2022/10/02 00:02:56;;;;;;;1.65;0.40;;;20.50;64.20;;;;;;5047086;28;20052;-63
2022/10/02 00:05:44;;;;;;;3.15;0.52;;;20.40;64.90;;;;;;5049541;28;20151;-63
2022/10/02 00:08:13;;;;;;;2.95;0.47;;;20.10;64.00;;;;;;5041103;28;20032;-63
2022/10/02 00:11:18;;;;;;;2.40;0.55;;;19.60;64.70;;;;;;5047389;28;20025;-63
2022/10/02 00:13:48;;;;;;;1.13;0.40;;;19.20;64.60;;;;;;5044330;28;20033;-63
2022/10/02 00:16:49;;;;;;;2.75;0.68;;;19.10;63.70;;;;;;5050719;28;20044;-63
2022/10/02 00:19:18;;;;;;;1.42;0.45;;;19.20;65.20;;;;;;5051741;28;20024;-63
2022/10/02 00:22:01;;;;;;;3.97;0.60;;;19.40;62.00;;;;;;5048873;28;20128;-63
2022/10/02 00:24:45;;;;;;;1.33;0.40;;;19.70;64.30;;;;;;5054018;28;20032;-63
2022/10/02 00:27:18;;;;;;;0.60;0.35;;;19.60;62.10;;;;;;5049444;28;20048;-60
2022/10/02 00:29:51;;;;;;;2.90;1.17;;;19.40;61.30;;;;;;5048769;28;20033;-62
2022/10/02 00:32:51;;;;;;;1.48;0.52;;;19.80;63.80;;;;;;5047349;28;20021;-61
2022/10/02 00:35:30;;;;;;;2.92;0.55;;;19.90;60.30;;;;;;5046738;28;20036;-61
2022/10/02 00:38:12;;;;;;;0.28;0.22;;;19.80;60.10;;;;;;5047459;28;20056;-61
2022/10/02 00:41:12;;;;;;;1.52;0.50;;;19.90;62.10;;;;;;5047292;28;21171;-61
2022/10/02 00:43:55;;;;;;;4.25;0.65;;;20.00;60.00;;;;;;5034407;28;20065;-61
2022/10/02 00:46:45;;;;;;;1.40;0.40;;;20.50;62.10;;;;;;5046122;28;20031;-61
2022/10/02 00:49:18;;;;;;;3.55;0.47;;;20.60;60.80;;;;;;5045150;28;20041;-61
2022/10/02 00:52:09;;;;;;;2.40;0.60;;;20.50;60.80;;;;;;5044428;28;20083;-61
2022/10/02 00:55:07;;;;;;;2.60;0.52;;;20.50;59.00;;;;;;5047734;28;20045;-62
2022/10/02 00:57:46;;;;;;;2.08;0.70;;;20.10;60.30;;;;;;5046160;28;20075;-61
2022/10/02 01:00:16;;;;;;;2.20;0.50;;;20.00;60.90;;;;;;5047330;28;20052;-61
2022/10/02 01:02:51;;;;;;;1.85;0.60;;;19.80;59.30;;;;;;5049426;28;20428;-61
2022/10/02 01:05:20;;;;;;;1.40;0.43;;;19.70;60.60;;;;;;5047575;28;20086;-61
2022/10/02 01:07:50;;;;;;;1.15;0.52;;;19.70;62.00;;;;;;5049349;28;20029;-61
2022/10/02 01:10:18;;;;;;;3.53;0.50;;;19.70;60.70;;;;;;5044263;28;20034;-61
2022/10/02 01:12:45;;;;;;;2.70;0.70;;;19.50;59.70;;;;;;5047922;28;20056;-61
2022/10/02 01:15:17;;;;;;;3.22;0.68;;;19.70;60.00;;;;;;5047489;28;20033;-62
2022/10/02 01:17:55;;;;;;;3.10;0.73;;;19.60;59.20;;;;;;5047197;28;20032;-61
2022/10/02 01:20:38;;;;;;;0.82;0.40;;;19.80;62.60;;;;;;5047981;28;20025;-62
2022/10/02 01:23:05;;;;;;;2.83;0.60;;;20.10;60.20;;;;;;5045377;28;20060;-62
2022/10/02 01:25:33;;;;;;;3.05;0.70;;;20.30;56.80;;;;;;5049341;28;20037;-61
2022/10/02 01:28:00;;;;;;;4.45;0.70;;;20.40;56.40;;;;;;5049085;28;20096;-65
2022/10/02 01:30:29;;;;;;;2.88;0.82;;;20.50;62.00;;;;;;5054570;28;20029;-62
2022/10/02 01:33:02;;;;;;;2.22;0.38;;;20.70;60.80;;;;;;5040614;28;20037;-61
2022/10/02 01:35:31;;;;;;;3.80;1.65;;;20.60;59.80;;;;;;5048278;28;20059;-61
2022/10/02 01:38:02;;;;;;;2.17;0.52;;;20.30;57.40;;;;;;5046076;28;20090;-62
2022/10/02 01:40:32;;;;;;;2.00;0.50;;;20.10;60.50;;;;;;5047007;28;20017;-62
2022/10/02 01:43:07;;;;;;;1.10;0.40;;;19.90;61.50;;;;;;5045532;28;20060;-62
2022/10/02 01:46:02;;;;;;;2.20;0.50;;;19.80;60.60;;;;;;5043642;28;20029;-61
2022/10/02 01:48:43;;;;;;;;;;;19.80;62.70;;;;;;5049955;28;20033;-62
2022/10/02 01:51:19;;;;;;;2.85;0.85;;;20.30;59.50;;;;;;5047578;28;19962;-62
2022/10/02 01:53:49;;;;;;;2.67;0.85;;;20.50;59.10;;;;;;5052310;28;20033;-62
2022/10/02 01:56:34;;;;;;;1.35;0.50;;;20.60;57.00;;;;;;5052949;28;20021;-62
2022/10/02 01:59:31;;;;;;;1.17;0.40;;;20.40;60.80;;;;;;5053494;28;20486;-62
2022/10/02 02:02:19;;;;;;;2.25;0.50;;;20.90;59.30;;;;;;5051968;28;20034;-63
2022/10/02 02:05:07;;;;;;;3.22;0.75;;;21.50;59.30;;;;;;5041173;28;20075;-61
2022/10/02 02:07:56;;;;;;;2.72;0.57;;;22.20;61.30;;;;;;5046079;28;20146;-62
2022/10/02 02:10:41;;;;;;;0.35;0.30;;;22.90;58.30;;;;;;5050839;28;20032;-64
2022/10/02 02:13:15;;;;;;;;;;;23.20;51.20;;;;;;5052790;28;20431;-64
2022/10/02 02:15:50;;;;;;;1.95;0.40;;;22.50;51.80;;;;;;5052246;28;19909;-63
2022/10/02 02:18:27;;;;;;;2.03;0.50;;;22.00;52.90;;;;;;5052712;28;20500;-63
2022/10/02 02:21:08;;;;;;;4.93;0.73;;;21.10;54.70;;;;;;5051720;28;20474;-62
2022/10/02 02:23:38;;;;;;;1.25;0.30;;;20.20;56.60;;;;;;5052456;28;20025;-64
2022/10/02 02:26:11;;;;;;;4.28;0.43;;;19.90;59.10;;;;;;5052435;28;20099;-62
2022/10/02 02:28:44;;;;;;;2.40;0.50;;;20.10;57.40;;;;;;5031635;28;20075;-61
2022/10/02 02:31:19;;;;;;;3.30;0.45;;;20.30;56.30;;;;;;5036462;28;20441;-62
2022/10/02 02:33:58;;;;;;;2.47;0.50;;;20.50;57.70;;;;;;5052445;28;20488;-62
2022/10/02 02:36:33;;;;;;;3.22;0.35;;;20.80;56.60;;;;;;5052644;28;20021;-63
2022/10/02 02:39:08;;;;;;;1.67;0.38;;;21.10;54.40;;;;;;5061546;28;20021;-62
2022/10/02 02:41:44;;;;;;;1.33;0.45;;;20.90;55.50;;;;;;5072126;28;20066;-63
2022/10/02 02:44:21;;;;;;;2.25;0.50;;;21.10;55.40;;;;;;5070857;28;20116;-62
2022/10/02 02:47:04;;;;;;;3.63;0.52;;;21.10;57.50;;;;;;5071707;28;20029;-62
2022/10/02 02:49:40;;;;;;;1.25;0.28;;;21.00;55.10;;;;;;5070255;28;20048;-62
2022/10/02 02:52:11;;;;;;;2.25;0.50;;;20.80;57.20;;;;;;5070798;28;20086;-62
2022/10/02 02:54:48;;;;;;;2.13;0.55;;;20.70;56.50;;;;;;5042737;28;20068;-62
2022/10/02 02:57:21;;;;;;;2.60;0.38;;;20.80;57.80;;;;;;5065629;28;20029;-62
2022/10/02 02:59:51;;;;;;;0.95;0.40;;;20.70;55.00;;;;;;5057147;28;20029;-62
2022/10/02 03:02:18;;;;;;;0.65;0.20;;;20.60;55.40;;;;;;5066429;28;20119;-63
2022/10/02 03:04:45;;;;;;;1.27;0.43;;;20.30;57.00;;;;;;5051269;28;20032;-62
2022/10/02 03:07:16;;;;;;;1.15;0.40;;;20.40;59.70;;;;;;5050769;28;20100;-62
2022/10/02 03:10:07;;;;;;;0.45;0.40;;;20.60;54.80;;;;;;5046314;28;20104;-62
2022/10/02 03:13:10;;;;;;;1.25;0.30;;;20.80;54.30;;;;;;5054599;28;20460;-61
2022/10/02 03:15:43;;;;;;;1.70;0.40;;;20.80;53.60;;;;;;5034075;28;20465;-61
2022/10/02 03:18:38;;;;;;;4.47;0.93;;;20.90;52.70;;;;;;5051394;28;20029;-61
2022/10/02 03:21:46;;;;;;;2.20;0.38;;;21.00;55.10;;;;;;5041021;28;20087;-61
2022/10/02 03:24:40;;;;;;;2.03;0.28;;;21.00;53.90;;;;;;5043611;28;20040;-61
2022/10/02 03:27:29;;;;;;;0.77;0.40;;;21.30;55.10;;;;;;5049987;28;20056;-61
2022/10/02 03:30:03;;;;;;;0.85;0.40;;;21.40;52.00;;;;;;5050460;28;20020;-61
2022/10/02 03:32:33;;;;;;;1.08;0.47;;;21.20;52.40;;;;;;5050382;28;20068;-60
2022/10/02 03:35:02;;;;;;;0.68;0.40;;;21.10;51.90;;;;;;5050155;28;20043;-61
2022/10/02 03:37:30;;;;;;;1.50;0.50;;;21.30;51.20;;;;;;5050276;28;20028;-60
2022/10/02 03:40:00;;;;;;;2.08;0.88;;;21.40;51.80;;;;;;5049685;28;20025;-60
2022/10/02 03:42:31;;;;;;;0.75;0.45;;;21.30;51.20;;;;;;5042477;28;20028;-60
2022/10/02 03:44:58;;;;;;;1.33;0.50;;;21.30;52.00;;;;;;5047493;28;20091;-60
2022/10/02 03:47:25;;;;;;;3.35;0.70;;;21.20;51.00;;;;;;5048560;28;20036;-61
2022/10/02 03:49:53;;;;;;;3.65;0.63;;;20.90;60.20;;;;;;5047262;28;20452;-61
2022/10/02 03:52:23;;;;;;;0.75;0.45;;;20.40;65.80;;;;;;5055857;28;20028;-61
2022/10/02 03:54:57;;;;;;;6.00;0.80;;;19.90;67.40;;;;;;5055604;28;20106;-61
2022/10/02 03:57:26;;;;;;;3.65;0.88;;;19.40;69.00;;;;;;5067462;28;20431;-61
2022/10/02 03:59:53;;;;;;;2.72;0.60;;;19.10;71.50;;;;;;5060275;28;20039;-60
2022/10/02 04:02:32;;;;;;;1.65;0.73;;;18.90;73.80;;;;;;5049336;28;20381;-61
2022/10/02 04:05:40;;;;;;;1.50;0.50;;;18.90;76.00;;;;;;5050610;28;20130;-61
2022/10/02 04:08:32;;;;;;;3.35;1.00;;;18.90;75.10;;;;;;5040657;28;20477;-61
2022/10/02 04:11:22;;;;;;;3.65;1.27;;;19.00;75.50;;;;;;5061534;28;20023;-61
2022/10/02 04:13:56;;;;;;;4.93;1.13;;;19.20;76.70;;;;;;5051402;28;20037;-61
2022/10/02 04:16:49;;;;;;;3.53;0.98;;;19.30;74.70;;;;;;5057838;28;20025;-61
2022/10/02 04:19:22;;;;;;;2.63;0.73;;;19.60;72.10;;;;;;5053911;28;20071;-61
2022/10/02 04:22:24;;;;;;;2.22;1.23;;;19.20;73.70;;;;;;5051737;28;20398;-62
2022/10/02 04:25:18;;;;;;;1.80;0.50;;;19.10;75.00;;;;;;5037812;28;20041;-64
2022/10/02 04:28:03;;;;;;;1.88;0.60;;;19.30;74.00;;;;;;5045721;28;20040;-64
2022/10/02 04:30:30;;;;;;;2.38;0.70;;;19.30;71.20;;;;;;5050667;28;20021;-64
2022/10/02 04:33:11;;;;;;;1.15;0.60;;;19.00;72.40;;;;;;5050187;28;20079;-64
2022/10/02 04:35:52;;;;;;;5.82;0.68;;;18.60;71.30;;;;;;5050371;28;20029;-64
2022/10/02 04:38:34;;;;;;;4.25;0.80;;;18.50;73.20;;;;;;5049392;28;20067;-64
2022/10/02 04:41:23;;;;;;;4.95;0.70;;;18.30;72.60;;;;;;5050644;28;20027;-64
2022/10/02 04:44:23;;;;;;;3.08;0.57;;;18.40;74.80;;;;;;5050223;28;20021;-64
2022/10/02 04:47:32;;;;;;;0.60;0.40;;;18.50;74.40;;;;;;5066095;28;20025;-64
2022/10/02 04:50:18;;;;;;;0.50;0.38;;;18.60;74.30;;;;;;5068464;28;20083;-64
2022/10/02 04:53:10;;;;;;;2.38;0.82;;;18.70;74.20;;;;;;5070018;28;20515;-64
2022/10/02 04:55:44;;;;;;;2.53;0.68;;;18.80;72.40;;;;;;5059059;28;20487;-64
2022/10/02 04:58:33;;;;;;;1.05;0.40;;;18.80;71.40;;;;;;5029860;28;20108;-64
2022/10/02 05:01:09;;;;;;;3.75;0.63;;;18.60;72.20;;;;;;5029028;28;20074;-64
2022/10/02 05:04:00;;;;;;;0.57;0.43;;;18.50;71.20;;;;;;5033195;28;20359;-64
2022/10/02 05:06:54;;;;;;;2.33;0.68;;;18.20;72.60;;;;;;5049725;28;20021;-64
2022/10/02 05:09:42;;;;;;;2.25;0.60;;;18.20;73.30;;;;;;5029719;28;20434;-64
2022/10/02 05:12:27;;;;;;;1.70;0.88;;;18.10;72.70;;;;;;5028492;28;20033;-64
2022/10/02 05:15:18;;;;;;;0.68;0.32;;;18.00;74.90;;;;;;5029770;28;20032;-64
2022/10/02 05:17:48;;;;;;;3.60;0.60;;;18.00;76.00;;;;;;5031932;28;20382;-64
2022/10/02 05:20:42;;;;;;;1.13;0.40;;;17.90;76.70;;;;;;5062294;28;20464;-64
2022/10/02 05:23:34;;;;;;;2.17;0.63;;;17.90;72.70;;;;;;5069677;28;20137;-64
2022/10/02 05:26:06;;;;;;;3.38;0.57;;;17.70;75.20;;;;;;5068328;28;20031;-64
2022/10/02 05:28:52;;;;;;;1.30;0.40;;;17.80;74.50;;;;;;5069958;28;20423;-64
2022/10/02 05:31:30;;;;;;;1.23;0.50;;;17.80;75.40;;;;;;5066444;28;20032;-64
2022/10/02 05:34:16;;;;;;;0.75;0.40;;;17.90;75.80;;;;;;5049319;28;20044;-64
2022/10/02 05:37:03;;;;;;;1.50;0.77;;;17.80;76.10;;;;;;5049394;28;20048;-64
2022/10/02 05:39:54;;;;;;;4.18;0.60;;;17.60;75.60;;;;;;5047907;28;20017;-64
2022/10/02 05:42:39;;;;;;;1.30;0.50;;;17.50;75.80;;;;;;5048886;28;20037;-64
2022/10/02 05:45:37;;;;;;;2.28;0.70;;;17.40;75.90;;;;;;5065757;28;20132;-65
2022/10/02 05:48:22;;;;;;;0.85;0.40;;;17.30;75.80;;;;;;5069704;28;20210;-63
2022/10/02 05:50:54;;;;;;;3.25;0.70;;;17.20;77.50;;;;;;5067869;28;20153;-64
2022/10/02 05:53:36;;;;;;;3.30;0.77;;;17.30;76.80;;;;;;5069415;28;20027;-64
2022/10/02 05:56:09;;;;;;;1.33;0.60;;;17.20;78.20;;;;;;5061984;28;20029;-65
2022/10/02 05:58:50;;;;;;;0.90;0.50;;;17.20;78.80;;;;;;5049315;28;20032;-64
2022/10/02 06:01:37;;;;;;;3.00;0.65;;;17.20;77.30;;;;;;5047910;28;20078;-64
2022/10/02 06:04:15;;;;;;;1.85;0.70;;;17.10;79.10;;;;;;5049465;28;20108;-64
2022/10/02 06:06:50;;;;;;;2.92;0.80;;;17.00;78.10;;;;;;5049061;28;20025;-64
2022/10/02 06:09:29;;;;;;;1.23;0.40;;;16.90;78.90;;;;;;5067074;28;20035;-64
2022/10/02 06:12:01;;;;;;;1.65;0.60;;;16.90;80.70;;;;;;5069156;28;20552;-64
2022/10/02 06:14:37;;;;;;;1.40;0.60;;;17.10;79.40;;;;;;5067575;28;20126;-64
2022/10/02 06:17:37;;;;;;;2.13;0.60;;;17.00;80.30;;;;;;5068205;28;20024;-64
2022/10/02 06:20:36;;;;;;;1.60;0.68;;;16.90;81.60;;;;;;5045357;28;20118;-63
2022/10/02 06:23:24;;;;;;;1.13;0.60;;;16.80;82.20;;;;;;5049554;28;20036;-64
2022/10/02 06:26:09;;;;;;;2.03;0.63;;;16.80;83.30;;;;;;5047884;28;20061;-64
2022/10/02 06:28:36;;;;;;;;;;;16.80;82.50;;;;;;5063699;28;20033;-64
2022/10/02 06:31:33;;;;;;;2.47;0.80;;;16.60;82.90;;;;;;5068057;28;19912;-63
2022/10/02 06:34:00;;;;;;;2.47;0.75;;;16.40;84.20;;;;;;5028957;28;20033;-63
2022/10/02 06:36:56;;;;;;;5.60;0.98;;;16.30;84.80;;;;;;5029307;28;20040;-63
2022/10/02 06:39:38;;;;;;;2.83;0.63;;;16.20;86.00;;;;;;5032386;28;20021;-63
2022/10/02 06:42:13;;;;;;;4.85;0.77;;;16.20;85.70;;;;;;5032994;28;20056;-64
2022/10/02 06:45:07;;;;;;;1.65;0.57;;;16.20;85.90;;;;;;5056478;28;20074;-64
2022/10/02 06:48:06;;;;;;;1.50;0.40;;;16.30;85.30;;;;;;5070963;28;20119;-64
2022/10/02 06:50:56;;;;;;;1.80;0.57;;;16.30;85.70;;;;;;5071317;28;20045;-64
2022/10/02 06:53:44;;;;;;;3.53;0.63;;;16.30;85.40;;;;;;5071960;28;20141;-65
2022/10/02 06:56:36;;;;;;;2.60;0.50;;;16.20;85.60;;;;;;5063004;28;20074;-64
2022/10/02 06:59:24;;;;;;;3.17;0.52;;;16.20;85.70;;;;;;5052724;28;20072;-65
2022/10/02 07:02:17;;;;;;;2.45;0.60;;;16.10;84.80;;;;;;5052368;28;20387;-64
2022/10/02 07:05:03;;;;;;;2.83;0.60;;;16.10;85.60;;;;;;5051758;28;20037;-66
2022/10/02 07:08:11;;;;;;;1.88;0.60;;;16.10;86.30;;;;;;5051215;28;20381;-64
2022/10/02 07:11:02;;;;;;;1.10;0.60;;;16.00;86.30;;;;;;5068682;28;20047;-65
2022/10/02 07:14:03;;;;;;;1.20;0.80;;;16.00;85.90;;;;;;5072108;28;20043;-65
2022/10/02 07:16:42;;;;;;;3.33;0.88;;;15.90;86.50;;;;;;5072342;28;20021;-65
2022/10/02 07:19:46;;;;;;;5.95;0.85;;;15.80;86.30;;;;;;5070100;28;20028;-65
2022/10/02 07:23:08;;;;;;;1.67;0.50;;;15.70;87.30;;;;;;5030476;28;20037;-65
2022/10/02 07:25:54;;;;;;;3.60;1.08;;;15.60;87.30;;;;;;5030912;28;20862;-66
2022/10/02 07:29:18;;;;;;;2.25;1.10;;;15.50;87.70;;;;;;5048837;28;20035;-66
2022/10/02 07:31:58;;;;;;;3.47;0.95;;;15.40;87.90;;;;;;5048989;28;20108;-65
2022/10/02 07:34:35;;;;;;;1.70;0.65;;;15.20;89.10;;;;;;5031994;28;20152;-65
2022/10/02 07:37:15;;;;;;;4.53;1.20;;;15.10;89.90;;;;;;5063830;28;20040;-65
2022/10/02 07:39:42;;;;;;;3.50;1.30;;;15.00;90.10;;;;;;5031156;28;20035;-65
2022/10/02 07:42:45;;;;;;;2.42;1.20;;;14.80;90.30;;;;;;5031337;28;20034;-66
2022/10/02 07:45:21;;;;;;;4.25;1.38;;;14.80;90.40;;;;;;5030115;28;20228;-65
2022/10/02 07:48:16;;;;;;;13.60;5.28;;;14.70;90.30;;;;;;5038274;28;20067;-65
2022/10/02 07:54:25;;;;;;;9.18;3.67;;;14.50;90.40;;;;;;5048856;28;20158;-65
2022/10/02 07:56:56;;;;;;;4.40;2.30;;;14.40;90.80;;;;;;5071059;28;20386;-66
2022/10/02 07:59:23;;;;;;;6.45;3.45;;;14.30;90.90;;;;;;5069605;28;20060;-66
2022/10/02 08:01:52;;;;;;;7.45;4.03;;;14.10;91.50;;;;;;5065473;28;20024;-65
2022/10/02 08:04:32;;;;;;;6.00;3.50;;;13.90;91.60;;;;;;5058797;28;20086;-65
2022/10/02 08:07:05;;;;;;;6.47;2.60;;;13.70;92.00;;;;;;5049713;28;20057;-66
2022/10/02 08:09:40;;;;;;;4.07;1.60;;;13.50;92.60;;;;;;5047173;28;20045;-66
2022/10/02 08:12:27;;;;;;;3.83;1.30;;;13.30;93.30;;;;;;5049204;28;20036;-66
2022/10/02 08:14:55;;;;;;;2.50;1.20;;;13.20;93.50;;;;;;5040118;28;20037;-63
2022/10/02 08:17:32;;;;;;;2.85;1.60;;;13.00;93.80;;;;;;5047703;28;20511;-63
2022/10/02 08:20:32;;;;;;;7.13;1.88;;;12.90;94.10;;;;;;5047939;28;20039;-63
2022/10/02 08:23:21;;;;;;;2.70;1.38;;;12.80;94.40;;;;;;5041920;28;20398;-61
2022/10/02 08:25:57;;;;;;;1.75;1.13;;;12.60;94.70;;;;;;5040655;28;20028;-63
2022/10/02 08:29:06;;;;;;;2.42;1.30;;;12.50;95.20;;;;;;5067821;28;20017;-63
2022/10/02 08:31:33;;;;;;;2.83;1.45;;;12.40;95.00;;;;;;5047570;28;20466;-63
2022/10/02 08:34:22;;;;;;;2.90;1.02;;;12.20;95.50;;;;;;5047938;28;20040;-63
2022/10/02 08:37:07;;;;;;;4.28;1.30;;;12.00;96.20;;;;;;5047807;28;20025;-63
2022/10/02 08:39:43;;;;;;;;;;;12.00;97.00;;;;;;5047495;28;20033;-63
2022/10/02 08:42:42;;;;;;;4.50;1.40;;;12.00;97.60;;;;;;5045782;28;19995;-64
2022/10/02 08:45:28;;;;;;;5.80;1.33;;;11.90;97.10;;;;;;5042838;28;20026;-63
2022/10/02 08:48:05;;;;;;;2.10;1.20;;;11.80;98.10;;;;;;5037507;28;20029;-63
2022/10/02 08:50:56;;;;;;;1.98;1.08;;;11.80;97.60;;;;;;5059555;28;20098;-63
2022/10/02 08:53:35;;;;;;;4.75;1.50;;;11.70;97.40;;;;;;5067326;28;20035;-64
2022/10/02 08:56:22;;;;;;;3.80;1.27;;;11.60;97.70;;;;;;5051656;28;20036;-63
2022/10/02 08:59:10;;;;;;;3.28;1.30;;;11.50;97.90;;;;;;5046845;28;20060;-64
2022/10/02 09:01:48;;;;;;;1.77;0.80;;;11.40;98.50;;;;;;5039152;28;20028;-64
2022/10/02 09:04:43;;;;;;;1.42;0.90;;;11.40;98.60;;;;;;5043314;28;20080;-63
2022/10/02 09:07:20;;;;;;;2.00;1.25;;;11.30;98.80;;;;;;5047075;28;20036;-63
2022/10/02 09:10:25;;;;;;;2.88;1.10;;;11.20;99.30;;;;;;5046873;28;20025;-64
2022/10/02 09:13:22;;;;;;;3.97;1.45;;;11.10;98.90;;;;;;5043459;28;20070;-63
2022/10/02 09:16:11;;;;;;;5.07;1.20;;;11.00;99.30;;;;;;5044116;28;20170;-63
2022/10/02 09:19:03;;;;;;;3.25;0.90;;;11.00;99.90;;;;;;5042231;28;20029;-64
2022/10/02 09:21:51;;;;;;;2.63;1.38;;;10.90;99.90;;;;;;5037248;28;20036;-64
2022/10/02 09:24:28;;;;;;;1.63;1.00;;;10.90;99.70;;;;;;5041628;28;20044;-63
2022/10/02 09:27:14;;;;;;;2.60;1.52;;;10.80;99.90;;;;;;5043261;28;20050;-62
2022/10/02 09:30:15;;;;;;;3.97;2.05;;;10.70;99.90;;;;;;5046995;28;20021;-62
2022/10/02 09:33:01;;;;;;;5.30;2.28;;;10.70;99.90;;;;;;5046485;28;20033;-62
2022/10/02 09:36:01;;;;;;;5.07;2.30;;;10.60;99.90;;;;;;5046291;28;20033;-63
2022/10/02 09:39:00;;;;;;;5.07;1.85;;;10.60;99.90;;;;;;5052389;28;20103;-63
2022/10/02 09:42:19;;;;;;;12.40;4.15;;;10.50;99.90;;;;;;5034518;28;20025;-63
2022/10/02 09:45:22;;;;;;;10.13;4.43;;;10.40;99.90;;;;;;5025567;28;20498;-63
2022/10/02 09:48:11;;;;;;;9.10;2.60;;;10.40;99.90;;;;;;5049901;28;20031;-63
2022/10/02 09:50:56;;;;;;;7.05;1.77;;;10.40;99.90;;;;;;5048206;28;20076;-63
2022/10/02 09:54:10;;;;;;;4.78;1.80;;;10.50;99.90;;;;;;5025492;28;20033;-63
2022/10/02 09:57:11;;;;;;;5.53;2.10;;;10.60;99.90;;;;;;5058829;28;20154;-63
2022/10/02 10:00:16;;;;;;;2.75;1.63;;;10.50;99.90;;;;;;5033262;28;20072;-63
2022/10/02 10:03:10;;;;;;;4.25;1.70;;;10.40;99.90;;;;;;5049533;28;20079;-63
2022/10/02 10:06:13;;;;;;;3.30;1.90;;;10.40;99.90;;;;;;5049462;28;20448;-63
2022/10/02 10:08:46;;;;;;;7.47;2.20;;;10.20;99.90;;;;;;5046269;28;20120;-62
2022/10/02 10:11:13;;;;;;;5.10;1.50;;;10.10;99.90;;;;;;5045472;28;20095;-63
2022/10/02 10:13:52;;;;;;;6.53;1.90;;;10.10;99.90;;;;;;5052076;28;20500;-62
2022/10/02 10:17:07;;;;;;;3.95;1.45;;;10.00;99.90;;;;;;5069379;28;20089;-63
2022/10/02 10:19:53;;;;;;;3.35;1.48;;;10.00;99.90;;;;;;5042592;28;20048;-63
2022/10/02 10:22:38;;;;;;;6.97;1.63;;;9.90;99.90;;;;;;5046420;28;20116;-63
2022/10/02 10:25:20;;;;;;;8.63;1.63;;;10.00;99.90;;;;;;5050891;28;20484;-63
2022/10/02 10:28:01;;;;;;;3.60;1.58;;;9.90;99.90;;;;;;5049670;28;20033;-63
2022/10/02 10:31:22;;;;;;;5.55;2.15;;;9.80;99.90;;;;;;5048260;28;20512;-63
2022/10/02 10:34:17;;;;;;;7.85;2.67;;;9.80;99.90;;;;;;5010274;28;20425;-63
2022/10/02 10:40:24;;;;;;;;;;;9.80;99.90;;;;;;5034453;28;20405;-63
2022/10/02 10:43:02;;;;;;;7.78;3.28;;;9.70;99.90;;;;;;5050091;28;19998;-63
2022/10/02 10:46:05;;;;;;;7.13;3.30;;;9.70;99.90;;;;;;5049976;28;20478;-63
2022/10/02 10:49:04;;;;;;;3.80;2.17;;;9.60;99.90;;;;;;5054149;28;20028;-63
2022/10/02 10:51:54;;;;;;;6.32;2.85;;;9.60;99.90;;;;;;5058021;28;20088;-63
2022/10/02 10:54:52;;;;;;;4.50;1.67;;;9.60;99.90;;;;;;5049302;28;20072;-62
2022/10/02 10:57:44;;;;;;;7.35;2.05;;;9.50;99.90;;;;;;5045568;28;20087;-63
2022/10/02 11:00:45;;;;;;;7.10;2.60;;;9.50;99.90;;;;;;5044957;28;20087;-62
2022/10/02 11:03:37;;;;;;;2.88;1.75;;;9.40;99.90;;;;;;5045047;28;20089;-64
2022/10/02 11:06:22;;;;;;;6.88;2.20;;;9.40;99.90;;;;;;5049723;28;20025;-63
2022/10/02 11:09:08;;;;;;;10.70;5.40;;;9.40;99.90;;;;;;5049773;28;20048;-63
2022/10/02 11:11:49;;;;;;;11.15;6.63;;;9.40;99.90;;;;;;5051724;28;20032;-63
2022/10/02 11:14:53;;;;;;;14.50;7.93;;;9.50;99.90;;;;;;5054935;28;20041;-63
2022/10/02 11:17:50;;;;;;;13.48;5.88;;;9.60;99.90;;;;;;5049226;28;20033;-63
2022/10/02 11:20:23;;;;;;;9.80;4.57;;;9.70;99.90;;;;;;5049114;28;20029;-63
2022/10/02 11:23:23;;;;;;;7.10;2.90;;;9.70;99.90;;;;;;5050893;28;20029;-63
2022/10/02 11:26:29;;;;;;;6.03;2.30;;;9.70;99.90;;;;;;5065403;28;20765;-63
2022/10/02 11:29:03;;;;;;;6.30;2.22;;;9.70;99.90;;;;;;5047672;28;20028;-63
2022/10/02 11:31:38;;;;;;;5.03;2.38;;;9.70;99.90;;;;;;5047988;28;20029;-64
2022/10/02 11:34:32;;;;;;;5.25;1.90;;;9.70;99.90;;;;;;5056603;28;20039;-63
2022/10/02 11:37:08;;;;;;;6.97;2.35;;;9.70;99.90;;;;;;5068862;28;20044;-64
2022/10/02 11:39:44;;;;;;;4.72;2.30;;;9.70;99.90;;;;;;5054527;28;20033;-65
2022/10/02 11:42:31;;;;;;;4.75;1.90;;;9.70;99.90;;;;;;5054335;28;20031;-63
2022/10/02 11:45:18;;;;;;;2.92;2.03;;;9.70;99.90;;;;;;5058181;28;20031;-62
2022/10/02 11:47:58;;;;;;;3.53;2.00;;;9.60;99.90;;;;;;5048622;28;20112;-63
2022/10/02 11:50:42;;;;;;;5.20;2.30;;;9.60;99.90;;;;;;5047785;28;20053;-63
2022/10/02 11:53:28;;;;;;;3.95;1.70;;;9.40;99.90;;;;;;5048164;28;20366;-63
2022/10/02 11:56:10;;;;;;;9.27;3.15;;;9.40;99.90;;;;;;5046149;28;20041;-63
2022/10/02 11:58:52;;;;;;;4.70;2.55;;;9.40;99.90;;;;;;5046750;28;20548;-64
2022/10/02 12:01:32;;;;;;;5.10;2.45;;;9.30;99.90;;;;;;5046004;28;20067;-64
2022/10/02 12:04:45;;;;;;;5.07;2.42;;;9.30;99.90;;;;;;5042866;28;20043;-62
2022/10/02 12:07:43;;;;;;;7.57;2.20;;;9.30;99.90;;;;;;5047105;28;20021;-68
2022/10/02 12:10:16;;;;;;;7.13;2.72;;;9.40;99.90;;;;;;5053984;28;20020;-63
2022/10/02 12:13:03;;;;;;;5.95;2.20;;;9.40;99.90;;;;;;5046379;28;20045;-63
2022/10/02 12:16:02;;;;;;;6.60;2.83;;;9.40;99.90;;;;;;5050536;28;20036;-63
2022/10/02 12:18:44;;;;;;;5.10;2.55;;;9.40;99.90;;;;;;5047261;28;20025;-63
2022/10/02 12:28:11;;;;;;;6.97;3.00;;;9.30;99.90;;;;;;5050456;28;20040;-63
2022/10/02 12:31:14;;;;;;;6.47;3.60;;;9.30;99.90;;;;;;5046211;28;20044;-63
2022/10/02 12:33:47;;;;;;;5.82;3.65;;;9.20;99.90;;;;;;5051557;28;20052;-63
2022/10/02 12:36:40;;;;;;;6.97;3.55;;;9.20;99.90;;;;;;5055336;28;20056;-63
2022/10/02 12:39:13;;;;;;;9.70;3.83;;;9.10;99.90;;;;;;5050298;28;20028;-62
2022/10/02 12:42:04;;;;;;;8.02;4.20;;;9.00;99.90;;;;;;5057704;28;20032;-63
2022/10/02 12:44:44;;;;;;;9.85;4.97;;;9.00;99.90;;;;;;5069666;28;20115;-62
2022/10/02 12:47:25;;;;;;;6.65;3.90;;;8.90;99.90;;;;;;5054827;28;20040;-62
2022/10/02 12:50:29;;;;;;;10.18;3.30;;;8.80;99.90;;;;;;5035826;28;20048;-64
2022/10/02 12:53:20;;;;;;;4.95;3.03;;;8.80;99.90;;;;;;5049550;28;20041;-64
2022/10/02 12:55:47;;;;;;;4.10;2.20;;;8.80;99.90;;;;;;5045202;28;20061;-63
2022/10/02 12:58:30;;;;;;;7.47;3.08;;;8.80;99.90;;;;;;5067805;28;20021;-63
2022/10/02 13:01:20;;;;;;;6.88;3.15;;;8.80;99.90;;;;;;5054630;28;20028;-62
2022/10/02 13:04:15;;;;;;;7.30;2.65;;;8.90;99.90;;;;;;5049755;28;20393;-63
2022/10/02 13:07:18;;;;;;;7.53;3.05;;;8.90;99.90;;;;;;5049082;28;20025;-62
2022/10/02 13:09:58;;;;;;;9.48;4.10;;;9.00;99.90;;;;;;5050127;28;20059;-62
2022/10/02 13:12:58;;;;;;;11.88;4.82;;;9.20;99.90;;;;;;5055885;28;20028;-62
2022/10/02 13:15:46;;;;;;;11.10;4.75;;;9.30;99.90;;;;;;5049098;28;20697;-62
2022/10/02 13:18:42;;;;;;;11.48;4.72;;;9.40;99.90;;;;;;5045020;28;20037;-62
2022/10/02 13:21:27;;;;;;;13.45;5.40;;;9.60;99.90;;;;;;5045689;28;20029;-63
2022/10/02 13:23:55;;;;;;;11.65;5.07;;;9.70;99.90;;;;;;5057336;28;20426;-63
2022/10/02 13:26:48;;;;;;;10.05;4.75;;;9.80;99.90;;;;;;5049175;28;20032;-63
2022/10/02 13:30:00;;;;;;;9.90;4.30;;;9.90;99.90;;;;;;5049073;28;20047;-63
2022/10/02 13:32:37;;;;;;;7.05;3.85;;;9.90;99.90;;;;;;5039287;28;20041;-63
2022/10/02 13:35:47;;;;;;;9.15;4.13;;;9.90;99.90;;;;;;5055766;28;20064;-63
2022/10/02 13:38:44;;;;;;;10.50;3.33;;;9.80;99.90;;;;;;5047545;28;20074;-64
2022/10/02 13:41:31;;;;;;;5.03;3.50;;;9.80;99.90;;;;;;5046546;28;20025;-63
2022/10/02 13:44:19;;;;;;;8.70;3.75;;;9.80;99.90;;;;;;5049200;28;20017;-63
2022/10/02 13:46:58;;;;;;;7.18;3.22;;;9.70;99.90;;;;;;5054062;28;20132;-63
2022/10/02 13:49:37;;;;;;;6.90;2.75;;;9.70;99.90;;;;;;5055327;28;20049;-64
2022/10/02 13:52:40;;;;;;;5.85;2.80;;;9.70;99.90;;;;;;5055910;28;20546;-63
2022/10/02 13:55:38;;;;;;;4.93;2.95;;;9.60;99.90;;;;;;5054106;28;20037;-64
2022/10/02 13:58:29;;;;;;;7.03;2.85;;;9.60;99.90;;;;;;5054292;28;20050;-63
2022/10/02 14:01:26;;;;;;;7.80;2.85;;;9.60;99.90;;;;;;5057548;28;20142;-63
2022/10/02 14:04:02;;;;;;;4.50;2.40;;;9.60;99.90;;;;;;5055663;28;20390;-63
2022/10/02 14:06:43;;;;;;;5.03;2.10;;;9.60;99.90;;;;;;5055333;28;20111;-63
2022/10/02 14:09:50;;;;;;;8.85;2.63;;;9.60;99.90;;;;;;5040693;28;20027;-62
2022/10/02 14:12:29;;;;;;;8.27;2.40;;;9.50;99.90;;;;;;5042447;28;20025;-63
2022/10/02 14:15:52;;;;;;;6.03;2.47;;;9.50;99.90;;;;;;5055351;28;20048;-62
2022/10/02 14:18:34;;;;;;;11.88;2.88;;;9.40;99.90;;;;;;5032168;28;20029;-63
2022/10/02 14:21:10;;;;;;;4.88;2.67;;;9.40;99.90;;;;;;5016218;28;20055;-64
2022/10/02 14:24:15;;;;;;;6.50;2.40;;;9.50;99.90;;;;;;5045606;28;20498;-64
2022/10/02 14:26:48;;;;;;;4.90;2.20;;;9.60;99.90;;;;;;5053431;28;20107;-62
2022/10/02 14:29:39;;;;;;;5.47;2.72;;;9.60;99.90;;;;;;5050749;28;20490;-63
2022/10/02 14:32:17;;;;;;;4.55;2.50;;;9.60;99.90;;;;;;5052712;28;20037;-62
2022/10/02 14:35:01;;;;;;;6.00;2.78;;;9.60;99.90;;;;;;5055177;28;20044;-62